createdAt,value
2017-05-02T00:00:18.982Z,939.92
2017-05-02T00:01:31.781Z,939.87
2017-05-02T00:02:44.571Z,939.86
2017-05-02T00:03:57.368Z,939.81
2017-05-02T00:05:10.172Z,939.71
2017-05-02T00:06:22.966Z,939.69
2017-05-02T00:07:35.278Z,939.6
2017-05-02T00:10:14.958Z,939.62
2017-05-02T00:11:27.767Z,939.67
2017-05-02T00:12:40.558Z,939.69
2017-05-02T00:13:53.354Z,939.66
2017-05-02T00:15:06.164Z,939.63
2017-05-02T00:16:18.957Z,939.64
2017-05-02T00:17:31.750Z,939.62
2017-05-02T00:18:43.624Z,939.62
2017-05-02T00:19:56.419Z,939.61
2017-05-02T00:21:09.218Z,939.62
2017-05-02T00:22:21.525Z,939.62
2017-05-02T00:23:34.318Z,939.65
2017-05-02T00:24:46.882Z,939.69
2017-05-02T00:25:59.681Z,939.67
2017-05-02T00:27:12.472Z,939.69
2017-05-02T00:28:25.268Z,939.63
2017-05-02T00:29:38.066Z,939.67
2017-05-02T00:30:51.111Z,939.61
2017-05-02T00:32:03.908Z,939.61
2017-05-02T00:33:16.698Z,939.59
2017-05-02T00:34:29.526Z,939.58
2017-05-02T00:35:42.577Z,939.62
2017-05-02T00:36:55.372Z,939.6
2017-05-02T00:38:08.165Z,939.64
2017-05-02T00:39:20.485Z,939.59
2017-05-02T00:40:33.286Z,939.58
2017-05-02T00:41:45.851Z,939.58
2017-05-02T00:42:58.649Z,939.63
2017-05-02T00:44:11.440Z,939.63
2017-05-02T00:45:23.755Z,939.68
2017-05-02T00:46:36.548Z,939.7
2017-05-02T00:47:48.862Z,939.67
2017-05-02T00:49:01.656Z,939.64
2017-05-02T00:50:14.450Z,939.62
2017-05-02T00:51:27.246Z,939.61
2017-05-02T00:52:40.043Z,939.66
2017-05-02T00:53:52.845Z,939.66
2017-05-02T00:55:05.161Z,939.7
2017-05-02T00:56:17.955Z,939.68
2017-05-02T00:58:57.658Z,939.68
2017-05-02T01:00:10.457Z,939.66
2017-05-02T01:01:23.252Z,939.64
2017-05-02T01:02:36.297Z,939.6
2017-05-02T01:03:48.610Z,939.62
2017-05-02T01:05:01.408Z,939.65
2017-05-02T01:06:14.208Z,939.69
2017-05-02T01:07:26.519Z,939.71
2017-05-02T01:08:38.834Z,939.75
2017-05-02T01:09:51.631Z,939.82
2017-05-02T01:11:04.441Z,939.81
2017-05-02T01:12:17.238Z,939.81
2017-05-02T01:13:30.288Z,939.84
2017-05-02T01:14:42.600Z,939.83
2017-05-02T01:15:55.390Z,939.78
2017-05-02T01:17:08.244Z,939.76
2017-05-02T01:18:21.042Z,939.78
2017-05-02T01:19:33.610Z,939.78
2017-05-02T01:20:46.405Z,939.8
2017-05-02T01:21:59.204Z,939.79
2017-05-02T01:23:11.527Z,939.85
2017-05-02T01:24:24.337Z,939.85
2017-05-02T01:25:36.672Z,939.89
2017-05-02T01:26:48.993Z,939.87
2017-05-02T01:28:01.792Z,939.86
2017-05-02T01:29:14.596Z,939.81
2017-05-02T01:30:27.407Z,939.78
2017-05-02T01:31:40.202Z,939.81
2017-05-02T01:32:52.999Z,939.77
2017-05-02T01:34:05.312Z,939.78
2017-05-02T01:35:18.373Z,939.74
2017-05-02T01:36:31.175Z,939.73
2017-05-02T01:37:43.973Z,939.73
2017-05-02T01:38:56.785Z,939.71
2017-05-02T01:40:09.593Z,939.67
2017-05-02T01:41:22.209Z,939.64
2017-05-02T01:42:35.011Z,939.63
2017-05-02T01:43:47.838Z,939.65
2017-05-02T01:45:00.157Z,939.61
2017-05-02T01:46:12.466Z,939.7
2017-05-02T01:47:24.774Z,939.71
2017-05-02T01:48:37.575Z,939.73
2017-05-02T01:49:50.365Z,939.73
2017-05-02T01:51:02.685Z,939.76
2017-05-02T01:52:15.780Z,939.76
2017-05-02T01:53:28.578Z,939.68
2017-05-02T01:54:41.375Z,939.69
2017-05-02T01:55:54.182Z,939.67
2017-05-02T01:57:07.002Z,939.7
2017-05-02T01:58:19.813Z,939.7
2017-05-02T01:59:32.617Z,939.7
2017-05-02T02:00:45.436Z,939.73
2017-05-02T02:01:58.247Z,939.72
2017-05-02T02:03:10.823Z,939.74
2017-05-02T02:04:23.627Z,939.74
2017-05-02T02:05:35.955Z,939.71
2017-05-02T02:06:48.750Z,939.74
2017-05-02T02:08:01.564Z,939.73
2017-05-02T02:09:14.362Z,939.78
2017-05-02T02:10:27.168Z,939.77
2017-05-02T02:11:39.969Z,939.77
2017-05-02T02:12:52.757Z,939.72
2017-05-02T02:14:05.801Z,939.73
2017-05-02T02:15:18.612Z,939.72
2017-05-02T02:16:31.402Z,939.7
2017-05-02T02:17:44.193Z,939.7
2017-05-02T02:18:57.270Z,939.7
2017-05-02T02:20:09.590Z,939.66
2017-05-02T02:21:21.945Z,939.7
2017-05-02T02:22:34.755Z,939.63
2017-05-02T02:23:47.544Z,939.62
2017-05-02T02:25:00.584Z,939.61
2017-05-02T02:26:13.380Z,939.61
2017-05-02T02:27:25.689Z,939.62
2017-05-02T02:28:38.490Z,939.62
2017-05-02T02:29:51.530Z,939.64
2017-05-02T02:31:03.842Z,939.68
2017-05-02T02:32:16.737Z,939.65
2017-05-02T02:33:29.048Z,939.65
2017-05-02T02:34:41.361Z,939.64
2017-05-02T02:35:54.150Z,939.62
2017-05-02T02:37:06.462Z,939.64
2017-05-02T02:38:19.263Z,939.64
2017-05-02T02:39:32.062Z,939.65
2017-05-02T02:40:45.153Z,939.64
2017-05-02T02:41:57.939Z,939.62
2017-05-02T02:43:10.729Z,939.66
2017-05-02T02:44:23.525Z,939.6
2017-05-02T02:45:36.341Z,939.58
2017-05-02T02:46:49.388Z,939.56
2017-05-02T02:48:02.177Z,939.57
2017-05-02T02:49:14.490Z,939.57
2017-05-02T02:50:27.308Z,939.59
2017-05-02T02:51:40.393Z,939.59
2017-05-02T02:52:52.695Z,939.62
2017-05-02T02:54:05.479Z,939.68
2017-05-02T02:55:18.270Z,939.65
2017-05-02T02:56:31.076Z,939.7
2017-05-02T02:57:44.160Z,939.72
2017-05-02T02:58:56.476Z,939.71
2017-05-02T03:00:09.276Z,939.72
2017-05-02T03:01:22.061Z,939.77
2017-05-02T03:02:34.847Z,939.82
2017-05-02T03:03:47.157Z,939.79
2017-05-02T03:04:59.960Z,939.78
2017-05-02T03:06:12.267Z,939.82
2017-05-02T03:07:25.058Z,939.8
2017-05-02T03:08:38.111Z,939.74
2017-05-02T03:09:50.905Z,939.65
2017-05-02T03:11:03.217Z,939.66
2017-05-02T03:12:16.021Z,939.62
2017-05-02T03:13:29.104Z,939.61
2017-05-02T03:14:41.891Z,939.58
2017-05-02T03:15:54.679Z,939.6
2017-05-02T03:17:07.461Z,939.59
2017-05-02T03:18:20.255Z,939.6
2017-05-02T03:19:33.296Z,939.66
2017-05-02T03:20:45.600Z,939.7
2017-05-02T03:21:58.384Z,939.68
2017-05-02T03:23:10.205Z,939.67
2017-05-02T03:24:23.242Z,939.67
2017-05-02T03:25:35.548Z,939.67
2017-05-02T03:26:48.331Z,939.66
2017-05-02T03:28:00.665Z,939.7
2017-05-02T03:29:13.454Z,939.76
2017-05-02T03:30:26.490Z,939.75
2017-05-02T03:31:39.272Z,939.77
2017-05-02T03:32:51.618Z,939.74
2017-05-02T03:34:04.404Z,939.71
2017-05-02T03:35:16.719Z,939.64
2017-05-02T03:36:29.501Z,939.6
2017-05-02T03:37:42.288Z,939.56
2017-05-02T03:38:55.076Z,939.54
2017-05-02T03:40:07.859Z,939.59
2017-05-02T03:41:20.643Z,939.57
2017-05-02T03:42:33.425Z,939.57
2017-05-02T03:43:46.211Z,939.52
2017-05-02T03:44:58.513Z,939.49
2017-05-02T03:46:11.300Z,939.45
2017-05-02T03:47:24.086Z,939.46
2017-05-02T03:48:36.878Z,939.44
2017-05-02T03:49:49.682Z,939.46
2017-05-02T03:51:01.985Z,939.48
2017-05-02T03:52:14.768Z,939.5
2017-05-02T03:53:27.072Z,939.47
2017-05-02T03:54:39.877Z,939.47
2017-05-02T03:55:52.179Z,939.44
2017-05-02T03:57:05.213Z,939.39
2017-05-02T03:58:17.511Z,939.42
2017-05-02T03:59:30.297Z,939.39
2017-05-02T04:00:43.088Z,939.41
2017-05-02T04:01:55.874Z,939.43
2017-05-02T04:03:08.466Z,939.4
2017-05-02T04:04:21.254Z,939.4
2017-05-02T04:05:34.039Z,939.35
2017-05-02T04:06:46.821Z,939.35
2017-05-02T04:07:59.601Z,939.33
2017-05-02T04:09:11.899Z,939.27
2017-05-02T04:10:24.202Z,939.29
2017-05-02T04:11:36.991Z,939.27
2017-05-02T04:12:49.779Z,939.27
2017-05-02T04:14:02.562Z,939.26
2017-05-02T04:15:15.357Z,939.2
2017-05-02T04:16:28.160Z,939.19
2017-05-02T04:17:40.942Z,939.17
2017-05-02T04:18:53.724Z,939.17
2017-05-02T04:20:06.503Z,939.18
2017-05-02T04:21:18.321Z,939.15
2017-05-02T04:22:31.114Z,939.14
2017-05-02T04:23:43.931Z,939.11
2017-05-02T04:24:56.715Z,939.12
2017-05-02T04:26:09.503Z,939.12
2017-05-02T04:27:21.803Z,939.13
2017-05-02T04:28:34.585Z,939.13
2017-05-02T04:29:47.369Z,939.18
2017-05-02T04:31:00.163Z,939.16
2017-05-02T04:32:12.467Z,939.18
2017-05-02T04:33:25.250Z,939.14
2017-05-02T04:34:38.034Z,939.09
2017-05-02T04:35:50.640Z,939.1
2017-05-02T04:37:03.422Z,939.09
2017-05-02T04:38:15.723Z,939.12
2017-05-02T04:39:28.024Z,939.12
2017-05-02T04:40:40.809Z,939.17
2017-05-02T04:41:53.593Z,939.22
2017-05-02T04:43:06.376Z,939.22
2017-05-02T04:44:19.161Z,939.27
2017-05-02T04:45:31.955Z,939.25
2017-05-02T04:46:44.735Z,939.22
2017-05-02T04:47:57.049Z,939.2
2017-05-02T04:49:09.830Z,939.2
2017-05-02T04:50:22.617Z,939.19
2017-05-02T04:51:35.170Z,939.18
2017-05-02T04:52:47.952Z,939.14
2017-05-02T04:54:00.740Z,939.13
2017-05-02T04:55:12.563Z,939.07
2017-05-02T04:56:25.344Z,939.06
2017-05-02T04:57:38.125Z,939.04
2017-05-02T04:58:50.430Z,939.06
2017-05-02T05:00:03.220Z,939.07
2017-05-02T05:01:15.522Z,939
2017-05-02T05:02:28.556Z,938.98
2017-05-02T05:03:41.347Z,938.95
2017-05-02T05:04:54.138Z,938.93
2017-05-02T05:06:06.438Z,938.94
2017-05-02T05:07:19.233Z,938.88
2017-05-02T05:08:32.017Z,938.89
2017-05-02T05:09:44.802Z,938.9
2017-05-02T05:10:57.584Z,938.93
2017-05-02T05:12:10.365Z,938.9
2017-05-02T05:13:23.452Z,938.91
2017-05-02T05:14:36.243Z,938.89
2017-05-02T05:15:49.025Z,938.92
2017-05-02T05:17:01.323Z,938.89
2017-05-02T05:18:14.105Z,938.91
2017-05-02T05:19:27.146Z,938.88
2017-05-02T05:20:39.932Z,938.9
2017-05-02T05:21:52.716Z,938.95
2017-05-02T05:23:05.499Z,938.99
2017-05-02T05:24:18.053Z,939.03
2017-05-02T05:25:30.834Z,939.07
2017-05-02T05:26:43.618Z,939.1
2017-05-02T05:27:55.916Z,939.06
2017-05-02T05:29:08.703Z,939.1
2017-05-02T05:30:21.789Z,939.07
2017-05-02T05:31:34.571Z,939.06
2017-05-02T05:32:47.353Z,939.12
2017-05-02T05:33:59.654Z,939.09
2017-05-02T05:35:12.435Z,939.11
2017-05-02T05:36:25.223Z,939.09
2017-05-02T05:37:38.004Z,939.08
2017-05-02T05:38:50.799Z,939.05
2017-05-02T05:40:03.585Z,939.06
2017-05-02T05:41:29.955Z,939.01
2017-05-02T05:42:42.733Z,939
2017-05-02T05:43:55.515Z,938.99
2017-05-02T05:45:08.300Z,938.96
2017-05-02T05:46:20.122Z,938.96
2017-05-02T05:47:32.909Z,938.91
2017-05-02T05:48:45.696Z,938.95
2017-05-02T05:49:58.478Z,938.94
2017-05-02T05:51:10.296Z,938.88
2017-05-02T05:52:23.101Z,938.89
2017-05-02T05:53:35.407Z,938.88
2017-05-02T05:54:48.190Z,938.79
2017-05-02T05:56:00.973Z,938.76
2017-05-02T05:57:13.298Z,938.72
2017-05-02T05:58:26.086Z,938.69
2017-05-02T05:59:38.396Z,938.68
2017-05-02T06:00:50.700Z,938.67
2017-05-02T06:02:03.780Z,938.67
2017-05-02T06:03:16.561Z,938.71
2017-05-02T06:04:29.340Z,938.73
2017-05-02T06:05:42.123Z,938.77
2017-05-02T06:06:54.898Z,938.7
2017-05-02T06:08:07.197Z,938.66
2017-05-02T06:09:19.980Z,938.59
2017-05-02T06:10:32.765Z,938.57
2017-05-02T06:11:45.550Z,938.56
2017-05-02T06:12:58.333Z,938.52
2017-05-02T06:14:11.116Z,938.51
2017-05-02T06:15:23.433Z,938.54
2017-05-02T06:16:35.734Z,938.54
2017-05-02T06:17:48.517Z,938.61
2017-05-02T06:19:01.303Z,938.6
2017-05-02T06:20:13.608Z,938.63
2017-05-02T06:21:25.914Z,938.63
2017-05-02T06:22:38.694Z,938.62
2017-05-02T06:23:51.776Z,938.56
2017-05-02T06:25:04.555Z,938.51
2017-05-02T06:26:17.335Z,938.43
2017-05-02T06:27:30.120Z,938.32
2017-05-02T06:28:42.901Z,938.27
2017-05-02T06:29:55.689Z,938.24
2017-05-02T06:31:08.469Z,938.24
2017-05-02T06:32:21.260Z,938.25
2017-05-02T06:33:33.564Z,938.24
2017-05-02T06:34:46.345Z,938.25
2017-05-02T06:35:59.132Z,938.25
2017-05-02T06:37:11.431Z,938.21
2017-05-02T06:38:23.247Z,938.2
2017-05-02T06:39:35.548Z,938.19
2017-05-02T06:40:48.096Z,938.17
2017-05-02T06:42:00.875Z,938.19
2017-05-02T06:43:12.698Z,938.17
2017-05-02T06:44:25.481Z,938.2
2017-05-02T06:45:38.303Z,938.18
2017-05-02T06:46:51.082Z,938.13
2017-05-02T06:48:02.416Z,938.09
2017-05-02T06:49:15.207Z,938.11
2017-05-02T06:50:27.516Z,938.09
2017-05-02T06:51:40.555Z,938.16
2017-05-02T06:52:52.856Z,938.18
2017-05-02T06:54:05.158Z,938.25
2017-05-02T06:55:17.457Z,938.26
2017-05-02T06:56:29.754Z,938.21
2017-05-02T06:57:42.536Z,938.18
2017-05-02T06:58:55.322Z,938.22
2017-05-02T07:00:08.109Z,938.19
2017-05-02T07:01:20.895Z,938.14
2017-05-02T07:02:32.720Z,938.13
2017-05-02T07:03:45.504Z,938.12
2017-05-02T07:04:57.805Z,938.11
2017-05-02T07:06:10.587Z,938.15
2017-05-02T07:07:23.670Z,938.09
2017-05-02T07:08:36.449Z,938.06
2017-05-02T07:09:48.752Z,938.03
2017-05-02T07:11:01.057Z,937.98
2017-05-02T07:12:13.841Z,937.98
2017-05-02T07:13:26.634Z,937.98
2017-05-02T07:14:38.973Z,938
2017-05-02T07:15:51.756Z,938.02
2017-05-02T07:17:04.054Z,937.98
2017-05-02T07:18:17.095Z,937.97
2017-05-02T07:19:29.884Z,937.99
2017-05-02T07:20:42.680Z,937.97
2017-05-02T07:21:55.527Z,937.95
2017-05-02T07:23:08.323Z,937.92
2017-05-02T07:24:21.121Z,937.91
2017-05-02T07:25:33.910Z,937.88
2017-05-02T07:26:46.694Z,937.89
2017-05-02T07:27:59.486Z,937.9
2017-05-02T07:29:12.533Z,937.89
2017-05-02T07:30:25.326Z,937.92
2017-05-02T07:31:38.114Z,937.89
2017-05-02T07:32:50.913Z,937.86
2017-05-02T07:34:03.702Z,937.8
2017-05-02T07:35:16.499Z,937.85
2017-05-02T07:36:28.815Z,937.86
2017-05-02T07:37:41.610Z,937.84
2017-05-02T07:38:54.403Z,937.85
2017-05-02T07:40:06.232Z,937.82
2017-05-02T07:41:18.540Z,937.81
2017-05-02T07:42:31.348Z,937.71
2017-05-02T07:43:43.672Z,937.65
2017-05-02T07:44:56.466Z,937.6
2017-05-02T07:46:09.518Z,937.57
2017-05-02T07:47:22.339Z,937.53
2017-05-02T07:48:35.137Z,937.52
2017-05-02T07:49:47.942Z,937.51
2017-05-02T07:51:01.038Z,937.48
2017-05-02T07:52:13.826Z,937.42
2017-05-02T07:53:26.620Z,937.38
2017-05-02T07:54:39.411Z,937.34
2017-05-02T07:55:52.193Z,937.34
2017-05-02T07:57:05.281Z,937.34
2017-05-02T07:58:17.107Z,937.28
2017-05-02T07:59:29.418Z,937.15
2017-05-02T08:00:41.717Z,937.07
2017-05-02T08:01:54.758Z,936.96
2017-05-02T08:03:07.550Z,936.94
2017-05-02T08:04:20.359Z,936.88
2017-05-02T08:05:33.150Z,936.87
2017-05-02T08:06:45.940Z,936.92
2017-05-02T08:07:58.250Z,936.91
2017-05-02T08:09:10.559Z,936.96
2017-05-02T08:10:22.383Z,936.94
2017-05-02T08:11:35.166Z,936.96
2017-05-02T08:12:47.949Z,936.98
2017-05-02T08:14:00.750Z,936.98
2017-05-02T08:15:13.059Z,937.02
2017-05-02T08:16:25.841Z,936.98
2017-05-02T08:17:38.160Z,937.03
2017-05-02T08:18:50.472Z,937.03
2017-05-02T08:20:03.264Z,937.03
2017-05-02T08:21:15.570Z,937
2017-05-02T08:22:28.368Z,937.01
2017-05-02T08:23:41.166Z,937.07
2017-05-02T08:24:53.968Z,937.12
2017-05-02T08:26:06.753Z,937.16
2017-05-02T08:27:19.539Z,937.23
2017-05-02T08:28:32.332Z,937.24
2017-05-02T08:29:45.384Z,937.34
2017-05-02T08:30:57.697Z,937.33
2017-05-02T08:32:10.005Z,937.38
2017-05-02T08:33:22.318Z,937.38
2017-05-02T08:34:35.367Z,937.4
2017-05-02T08:35:47.682Z,937.44
2017-05-02T08:37:00.469Z,937.57
2017-05-02T08:38:12.776Z,937.57
2017-05-02T08:39:25.575Z,937.57
2017-05-02T08:40:38.372Z,937.56
2017-05-02T08:41:51.177Z,937.54
2017-05-02T08:43:03.966Z,937.53
2017-05-02T08:44:16.755Z,937.53
2017-05-02T08:45:29.807Z,937.56
2017-05-02T08:46:42.114Z,937.57
2017-05-02T08:47:54.906Z,937.52
2017-05-02T08:49:07.707Z,937.54
2017-05-02T08:50:20.504Z,937.56
2017-05-02T08:51:33.064Z,937.57
2017-05-02T08:52:45.853Z,937.6
2017-05-02T08:53:58.642Z,937.59
2017-05-02T08:55:11.439Z,937.6
2017-05-02T08:56:24.233Z,937.58
2017-05-02T08:57:37.016Z,937.67
2017-05-02T08:58:49.805Z,937.74
2017-05-02T09:00:02.597Z,937.76
2017-05-02T09:01:15.391Z,937.84
2017-05-02T09:02:28.193Z,937.89
2017-05-02T09:03:40.994Z,937.94
2017-05-02T09:04:53.789Z,938
2017-05-02T09:06:06.100Z,938.01
2017-05-02T09:07:19.149Z,938.06
2017-05-02T09:08:31.933Z,938.16
2017-05-02T09:09:44.714Z,938.22
2017-05-02T09:10:57.496Z,938.29
2017-05-02T09:12:09.313Z,938.28
2017-05-02T09:13:21.612Z,938.3
2017-05-02T09:14:33.921Z,938.27
2017-05-02T09:15:45.746Z,938.23
2017-05-02T09:16:58.526Z,938.21
2017-05-02T09:18:11.307Z,938.17
2017-05-02T09:19:24.099Z,938.2
2017-05-02T09:20:36.911Z,938.11
2017-05-02T09:21:49.694Z,938.22
2017-05-02T09:23:02.479Z,938.38
2017-05-02T09:24:15.281Z,938.48
2017-05-02T09:25:28.066Z,938.5
2017-05-02T09:26:40.852Z,938.54
2017-05-02T09:27:53.634Z,938.56
2017-05-02T09:29:06.413Z,938.51
2017-05-02T09:30:19.235Z,938.47
2017-05-02T09:31:32.013Z,938.51
2017-05-02T09:32:44.308Z,938.53
2017-05-02T09:33:57.092Z,938.5
2017-05-02T09:35:09.930Z,938.45
2017-05-02T09:36:21.775Z,938.4
2017-05-02T09:37:34.555Z,938.43
2017-05-02T09:38:46.856Z,938.4
2017-05-02T09:39:59.415Z,938.36
2017-05-02T09:41:11.713Z,938.32
2017-05-02T09:42:24.010Z,938.32
2017-05-02T09:43:36.319Z,938.31
2017-05-02T09:44:49.099Z,938.3
2017-05-02T09:46:02.134Z,938.26
2017-05-02T09:47:13.951Z,938.21
2017-05-02T09:48:26.737Z,938.24
2017-05-02T09:49:39.044Z,938.26
2017-05-02T09:50:51.347Z,938.22
2017-05-02T09:52:04.133Z,938.28
2017-05-02T09:53:16.433Z,938.28
2017-05-02T09:54:29.238Z,938.31
2017-05-02T09:55:41.546Z,938.3
2017-05-02T09:56:54.642Z,938.34
2017-05-02T09:58:06.946Z,938.35
2017-05-02T09:59:19.752Z,938.36
2017-05-02T10:00:32.551Z,938.35
2017-05-02T10:01:44.858Z,938.41
2017-05-02T10:02:57.654Z,938.44
2017-05-02T10:04:10.443Z,938.45
2017-05-02T10:05:22.264Z,938.42
2017-05-02T10:06:35.059Z,938.38
2017-05-02T10:07:48.105Z,938.38
2017-05-02T10:09:00.914Z,938.37
2017-05-02T10:10:13.707Z,938.42
2017-05-02T10:11:26.492Z,938.4
2017-05-02T10:12:39.055Z,938.41
2017-05-02T10:13:51.362Z,938.39
2017-05-02T10:15:03.196Z,938.33
2017-05-02T10:16:15.519Z,938.24
2017-05-02T10:17:27.826Z,938.14
2017-05-02T10:18:40.874Z,938.15
2017-05-02T10:19:53.185Z,938.14
2017-05-02T10:21:05.992Z,938.11
2017-05-02T10:22:17.819Z,938.13
2017-05-02T10:23:30.383Z,938.1
2017-05-02T10:24:42.219Z,938.19
2017-05-02T10:25:55.009Z,938.08
2017-05-02T10:27:07.801Z,938.1
2017-05-02T10:28:20.594Z,938
2017-05-02T10:29:32.904Z,937.99
2017-05-02T10:30:44.733Z,938
2017-05-02T10:31:57.037Z,937.9
2017-05-02T10:33:08.864Z,937.92
2017-05-02T10:34:21.658Z,937.94
2017-05-02T10:35:33.486Z,937.88
2017-05-02T10:36:45.795Z,937.9
2017-05-02T10:37:58.588Z,937.92
2017-05-02T10:39:11.382Z,937.89
2017-05-02T10:40:24.186Z,937.89
2017-05-02T10:41:36.983Z,937.85
2017-05-02T10:42:49.773Z,937.86
2017-05-02T10:44:02.081Z,937.86
2017-05-02T10:45:15.177Z,937.92
2017-05-02T10:46:27.964Z,937.99
2017-05-02T10:47:40.757Z,938.02
2017-05-02T10:48:53.070Z,938.13
2017-05-02T10:50:05.875Z,938.18
2017-05-02T10:51:18.671Z,938.19
2017-05-02T10:52:31.479Z,938.17
2017-05-02T10:53:44.287Z,938.15
2017-05-02T10:54:56.605Z,938.07
2017-05-02T10:56:09.425Z,938.07
2017-05-02T10:57:20.767Z,938.01
2017-05-02T10:58:33.082Z,937.96
2017-05-02T10:59:45.887Z,938.02
2017-05-02T11:00:58.677Z,938.05
2017-05-02T11:02:11.461Z,938.02
2017-05-02T11:03:23.763Z,938.04
2017-05-02T11:04:36.560Z,938.09
2017-05-02T11:05:49.362Z,938.06
2017-05-02T11:07:01.987Z,938.09
2017-05-02T11:08:14.780Z,938.11
2017-05-02T11:09:27.579Z,938.2
2017-05-02T11:10:40.377Z,938.28
2017-05-02T11:11:53.168Z,938.38
2017-05-02T11:13:05.974Z,938.42
2017-05-02T11:14:18.777Z,938.5
2017-05-02T11:15:31.089Z,938.56
2017-05-02T11:16:43.877Z,938.62
2017-05-02T11:17:56.187Z,938.66
2017-05-02T11:19:08.978Z,938.71
2017-05-02T11:20:21.774Z,938.77
2017-05-02T11:21:34.571Z,938.81
2017-05-02T11:22:47.364Z,938.87
2017-05-02T11:23:59.196Z,938.85
2017-05-02T11:25:11.536Z,938.9
2017-05-02T11:26:23.850Z,938.94
2017-05-02T11:27:36.788Z,938.98
2017-05-02T11:28:49.119Z,939.02
2017-05-02T11:30:01.923Z,939.05
2017-05-02T11:31:14.711Z,939.1
2017-05-02T11:32:26.540Z,939.1
2017-05-02T11:33:38.860Z,939.18
2017-05-02T11:34:51.651Z,939.16
2017-05-02T11:36:03.968Z,939.18
2017-05-02T11:37:16.280Z,939.26
2017-05-02T11:38:29.070Z,939.3
2017-05-02T11:39:41.867Z,939.32
2017-05-02T11:40:54.186Z,939.39
2017-05-02T11:42:06.500Z,939.41
2017-05-02T11:43:18.807Z,939.47
2017-05-02T11:44:31.601Z,939.5
2017-05-02T11:45:44.402Z,939.44
2017-05-02T11:46:57.205Z,939.46
2017-05-02T11:48:09.998Z,939.43
2017-05-02T11:49:23.104Z,939.45
2017-05-02T11:50:35.418Z,939.46
2017-05-02T11:51:47.732Z,939.45
2017-05-02T11:53:00.050Z,939.52
2017-05-02T11:54:12.853Z,939.47
2017-05-02T11:55:25.172Z,939.47
2017-05-02T11:56:38.001Z,939.43
2017-05-02T11:57:50.804Z,939.42
2017-05-02T11:59:03.605Z,939.4
2017-05-02T12:00:16.227Z,939.35
2017-05-02T12:01:29.026Z,939.39
2017-05-02T12:02:41.339Z,939.34
2017-05-02T12:03:54.137Z,939.42
2017-05-02T12:05:06.452Z,939.44
2017-05-02T12:06:19.253Z,939.49
2017-05-02T12:07:32.234Z,939.55
2017-05-02T12:08:45.038Z,939.63
2017-05-02T12:09:57.842Z,939.6
2017-05-02T12:11:10.639Z,939.69
2017-05-02T12:12:23.436Z,939.66
2017-05-02T12:13:36.002Z,939.66
2017-05-02T12:14:48.809Z,939.61
2017-05-02T12:16:01.616Z,939.66
2017-05-02T12:17:13.932Z,939.65
2017-05-02T12:18:26.726Z,939.66
2017-05-02T12:19:39.048Z,939.64
2017-05-02T12:20:51.850Z,939.61
2017-05-02T12:22:04.651Z,939.59
2017-05-02T12:23:16.966Z,939.53
2017-05-02T12:24:29.279Z,939.47
2017-05-02T12:25:41.597Z,939.42
2017-05-02T12:26:53.910Z,939.41
2017-05-02T12:28:06.226Z,939.4
2017-05-02T12:29:19.015Z,939.44
2017-05-02T12:30:31.806Z,939.46
2017-05-02T12:31:44.610Z,939.52
2017-05-02T12:32:57.404Z,939.53
2017-05-02T12:34:09.234Z,939.55
2017-05-02T12:35:22.025Z,939.55
2017-05-02T12:36:34.815Z,939.63
2017-05-02T12:37:47.615Z,939.61
2017-05-02T12:39:00.414Z,939.64
2017-05-02T12:40:12.722Z,939.66
2017-05-02T12:41:25.517Z,939.66
2017-05-02T12:42:37.843Z,939.64
2017-05-02T12:43:50.653Z,939.64
2017-05-02T12:45:03.450Z,939.59
2017-05-02T12:46:16.238Z,939.56
2017-05-02T12:47:28.552Z,939.49
2017-05-02T12:48:41.349Z,939.51
2017-05-02T12:49:54.440Z,939.48
2017-05-02T12:51:07.242Z,939.49
2017-05-02T12:52:18.583Z,939.48
2017-05-02T12:53:31.378Z,939.48
2017-05-02T12:57:55.955Z,939.56
2017-05-02T12:59:08.753Z,939.57
2017-05-02T13:00:21.550Z,939.57
2017-05-02T13:01:34.352Z,939.51
2017-05-02T13:02:46.907Z,939.48
2017-05-02T13:03:59.700Z,939.46
2017-05-02T13:05:11.538Z,939.48
2017-05-02T13:06:24.326Z,939.5
2017-05-02T13:07:37.126Z,939.53
2017-05-02T13:08:49.730Z,939.51
2017-05-02T13:10:02.539Z,939.54
2017-05-02T13:11:14.851Z,939.55
2017-05-02T13:12:27.174Z,939.58
2017-05-02T13:13:39.973Z,939.53
2017-05-02T13:14:52.290Z,939.52
2017-05-02T13:16:05.094Z,939.47
2017-05-02T13:17:17.893Z,939.46
2017-05-02T13:18:30.201Z,939.5
2017-05-02T13:21:23.463Z,939.46
2017-05-02T13:22:36.252Z,939.47
2017-05-02T13:23:49.054Z,939.4
2017-05-02T13:25:01.846Z,939.43
2017-05-02T13:26:14.160Z,939.45
2017-05-02T13:27:26.958Z,939.47
2017-05-02T13:28:39.277Z,939.51
2017-05-02T13:29:52.077Z,939.55
2017-05-02T13:31:04.882Z,939.55
2017-05-02T13:32:17.683Z,939.51
2017-05-02T13:33:30.000Z,939.54
2017-05-02T13:34:42.800Z,939.52
2017-05-02T13:35:55.596Z,939.45
2017-05-02T13:37:07.919Z,939.43
2017-05-02T13:38:20.706Z,939.4
2017-05-02T13:39:33.015Z,939.47
2017-05-02T13:40:45.805Z,939.47
2017-05-02T13:41:58.599Z,939.48
2017-05-02T13:43:10.915Z,939.47
2017-05-02T13:44:24.017Z,939.43
2017-05-02T13:45:35.852Z,939.39
2017-05-02T13:46:48.664Z,939.38
2017-05-02T13:48:01.471Z,939.43
2017-05-02T13:49:13.787Z,939.4
2017-05-02T13:50:26.411Z,939.42
2017-05-02T13:51:38.241Z,939.44
2017-05-02T13:52:51.046Z,939.45
2017-05-02T13:54:03.839Z,939.42
2017-05-02T13:55:16.931Z,939.4
2017-05-02T13:56:29.236Z,939.39
2017-05-02T13:57:42.039Z,939.37
2017-05-02T13:58:54.837Z,939.38
2017-05-02T14:00:07.629Z,939.36
2017-05-02T14:01:20.424Z,939.35
2017-05-02T14:02:33.225Z,939.32
2017-05-02T14:03:46.239Z,939.31
2017-05-02T14:04:59.036Z,939.25
2017-05-02T14:06:11.827Z,939.2
2017-05-02T14:08:51.537Z,939.22
2017-05-02T14:11:30.716Z,939.2
2017-05-02T14:12:43.024Z,939.17
2017-05-02T14:13:55.349Z,939.22
2017-05-02T14:15:08.157Z,939.17
2017-05-02T14:16:20.947Z,939.14
2017-05-02T14:17:33.258Z,939.07
2017-05-02T14:18:46.062Z,939.06
2017-05-02T14:19:58.382Z,939.04
2017-05-02T14:21:11.186Z,939.03
2017-05-02T14:22:23.982Z,938.98
2017-05-02T14:23:36.774Z,938.94
2017-05-02T14:24:49.089Z,938.95
2017-05-02T14:26:01.400Z,938.94
2017-05-02T14:27:14.763Z,938.88
2017-05-02T14:28:27.558Z,938.85
2017-05-02T14:29:40.356Z,938.88
2017-05-02T14:30:53.159Z,938.82
2017-05-02T14:32:05.951Z,938.8
2017-05-02T14:33:18.748Z,938.79
2017-05-02T14:34:31.552Z,938.8
2017-05-02T14:35:44.613Z,938.78
2017-05-02T14:36:57.416Z,938.76
2017-05-02T14:38:09.728Z,938.71
2017-05-02T14:39:22.049Z,938.67
2017-05-02T14:40:34.671Z,938.67
2017-05-02T14:41:47.458Z,938.66
2017-05-02T14:43:00.251Z,938.69
2017-05-02T14:44:12.556Z,938.62
2017-05-02T14:45:24.881Z,938.58
2017-05-02T14:46:37.677Z,938.55
2017-05-02T14:47:49.987Z,938.55
2017-05-02T14:49:02.562Z,938.5
2017-05-02T14:50:15.369Z,938.47
2017-05-02T14:51:28.173Z,938.52
2017-05-02T14:52:40.975Z,938.46
2017-05-02T14:53:53.775Z,938.42
2017-05-02T14:55:06.095Z,938.45
2017-05-02T14:56:18.409Z,938.42
2017-05-02T14:57:31.214Z,938.39
2017-05-02T14:58:44.007Z,938.38
2017-05-02T14:59:56.803Z,938.33
2017-05-02T15:01:09.605Z,938.34
2017-05-02T15:02:21.916Z,938.37
2017-05-02T15:03:34.716Z,938.33
2017-05-02T15:04:47.516Z,938.3
2017-05-02T15:06:00.325Z,938.26
2017-05-02T15:07:13.164Z,938.23
2017-05-02T15:08:25.953Z,938.26
2017-05-02T15:09:38.270Z,938.27
2017-05-02T15:11:05.132Z,938.29
2017-05-02T15:13:44.781Z,938.22
2017-05-02T15:14:57.819Z,938.19
2017-05-02T15:16:10.605Z,938.17
2017-05-02T15:17:23.394Z,938.14
2017-05-02T15:18:35.705Z,938.11
2017-05-02T15:19:48.497Z,938.08
2017-05-02T15:21:01.294Z,938.04
2017-05-02T15:22:14.088Z,938.04